Wallace, West Virginia
Current Conditions -  °F | °C
As of 3:53 PM on Tuesday 25 Nov 2014 (Local Time) from KCKB Reporting Station
Clear Clear  
Wind Chill: 51°   Ceiling: Unl
Heat Index: 51°   Visibility: 10mi
Dew Point: 29°   Wind: 8mph
Humidity: 43%   Direction: 230°SW
Pressure: 30.04"   Gusts: NA
Location:  39.41°N, 80.49°W
Report Text: KCKB 252053Z AUTO 23007KT 10SM CLR 11/M02 A3004 RMK AO2 SLP171 T01061017 56007 TSNO
Loading
Personal Weather Stations






























Interactive Weather Map New forecast layout! Learn more

10-Day Weather Forecast

Advertisements
Track Severe Weather on mobile